createdAt,value
2022-11-25T00:00:23.725Z,431.33
2022-11-25T00:01:18.831Z,434.70
2022-11-25T00:02:13.951Z,439.57
2022-11-25T00:03:08.893Z,442.20
2022-11-25T00:04:03.893Z,446.04
2022-11-25T00:04:58.889Z,451.17
2022-11-25T00:05:53.958Z,453.01
2022-11-25T00:06:49.050Z,459.89
2022-11-25T00:07:44.122Z,461.48
2022-11-25T00:08:39.162Z,457.67
2022-11-25T00:09:34.165Z,463.72
2022-11-25T00:10:29.210Z,465.34
2022-11-25T00:11:24.221Z,461.80
2022-11-25T00:12:19.266Z,463.40
2022-11-25T00:13:14.293Z,461.80
2022-11-25T00:14:09.297Z,464.37
2022-11-25T00:15:06.909Z,461.16
2022-11-25T00:16:01.976Z,463.72
2022-11-25T00:16:57.219Z,456.11
2022-11-25T00:17:51.971Z,443.08
2022-11-25T00:18:47.011Z,439.86
2022-11-25T00:19:42.022Z,438.71
2022-11-25T00:20:37.032Z,442.49
2022-11-25T00:21:32.029Z,446.94
2022-11-25T00:22:27.127Z,454.56
2022-11-25T00:23:22.147Z,455.49
2022-11-25T00:24:17.178Z,450.87
2022-11-25T00:25:12.207Z,460.52
2022-11-25T00:26:07.218Z,458.30
2022-11-25T00:27:02.235Z,457.05
2022-11-25T00:27:57.319Z,460.52
2022-11-25T00:28:52.315Z,462.76
2022-11-25T00:29:47.370Z,451.78
2022-11-25T00:30:42.367Z,457.36
2022-11-25T00:31:37.531Z,459.25
2022-11-25T00:32:32.679Z,461.16
2022-11-25T00:33:27.702Z,464.05
2022-11-25T00:34:22.776Z,462.44
2022-11-25T00:35:17.771Z,468.61
2022-11-25T00:36:12.877Z,469.93
2022-11-25T00:37:07.893Z,468.94
2022-11-25T00:38:02.920Z,469.27
2022-11-25T00:38:58.092Z,471.59
2022-11-25T00:39:53.238Z,471.93
2022-11-25T00:40:48.583Z,472.93
2022-11-25T00:41:43.685Z,472.60
2022-11-25T00:42:38.698Z,468.61
2022-11-25T00:43:33.740Z,471.59
2022-11-25T00:44:28.768Z,471.59
2022-11-25T00:45:23.801Z,472.26
2022-11-25T00:46:18.950Z,470.93
2022-11-25T00:47:17.638Z,469.27
2022-11-25T00:48:12.650Z,473.27
2022-11-25T00:49:07.662Z,475.97
2022-11-25T00:50:02.694Z,477.67
2022-11-25T00:50:57.831Z,479.05
2022-11-25T00:51:53.206Z,475.63
2022-11-25T00:52:48.040Z,479.74
2022-11-25T00:53:43.192Z,479.74
2022-11-25T00:54:38.493Z,481.82
2022-11-25T00:55:33.351Z,482.16
2022-11-25T00:56:28.388Z,483.91
2022-11-25T00:57:23.526Z,481.12
2022-11-25T00:58:18.532Z,453.01
2022-11-25T00:59:13.619Z,440.45
2022-11-25T01:00:08.587Z,445.74
2022-11-25T01:01:03.898Z,451.78
2022-11-25T01:02:00.235Z,457.99
2022-11-25T01:02:55.227Z,460.20
2022-11-25T01:03:50.385Z,464.05
2022-11-25T01:04:45.420Z,466.97
2022-11-25T01:05:40.419Z,467.95
2022-11-25T01:06:35.805Z,471.26
2022-11-25T01:07:30.579Z,472.93
2022-11-25T01:08:25.585Z,474.61
2022-11-25T01:09:20.702Z,476.65
2022-11-25T01:10:15.823Z,476.99
2022-11-25T01:11:10.937Z,480.08
2022-11-25T01:12:05.872Z,477.67
2022-11-25T01:13:00.913Z,478.36
2022-11-25T01:14:01.715Z,479.74
2022-11-25T01:14:55.378Z,478.02
2022-11-25T01:15:50.441Z,480.77
2022-11-25T01:16:45.611Z,480.77
2022-11-25T01:17:40.527Z,479.74
2022-11-25T01:18:35.544Z,480.08
2022-11-25T01:19:30.621Z,482.51
2022-11-25T01:20:25.692Z,483.21
2022-11-25T01:21:20.801Z,485.68
2022-11-25T01:22:15.945Z,484.27
2022-11-25T01:23:12.360Z,487.10
2022-11-25T01:24:07.555Z,492.13
2022-11-25T01:25:03.313Z,496.16
2022-11-25T01:25:58.449Z,497.27
2022-11-25T01:26:53.919Z,502.13
2022-11-25T01:27:49.525Z,504.03
2022-11-25T01:28:44.701Z,499.13
2022-11-25T01:29:40.429Z,503.65
2022-11-25T01:30:40.884Z,506.33
2022-11-25T01:31:32.037Z,503.65
2022-11-25T01:32:26.574Z,502.13
2022-11-25T01:33:21.742Z,501.38
2022-11-25T01:34:16.925Z,499.13
2022-11-25T01:35:13.299Z,497.27
2022-11-25T01:36:08.661Z,496.52
2022-11-25T01:37:04.382Z,495.05
2022-11-25T01:37:59.517Z,494.68
2022-11-25T01:38:54.750Z,493.58
2022-11-25T01:39:50.450Z,492.49
2022-11-25T01:40:45.646Z,490.32
2022-11-25T01:41:41.553Z,489.60
2022-11-25T01:42:36.597Z,493.95
2022-11-25T01:43:31.930Z,492.49
2022-11-25T01:44:27.672Z,489.24
2022-11-25T01:45:25.582Z,493.22
2022-11-25T01:46:19.195Z,492.13
2022-11-25T01:47:13.322Z,497.64
2022-11-25T01:48:09.173Z,496.89
2022-11-25T01:49:04.373Z,499.13
2022-11-25T01:49:59.524Z,503.27
2022-11-25T01:50:55.924Z,503.27
2022-11-25T01:51:51.253Z,505.18
2022-11-25T01:52:46.953Z,506.71
2022-11-25T01:53:42.121Z,512.55
2022-11-25T01:54:37.539Z,513.34
2022-11-25T01:55:33.170Z,514.53
2022-11-25T01:56:28.316Z,516.12
2022-11-25T01:57:24.303Z,515.73
2022-11-25T01:58:19.355Z,515.73
2022-11-25T01:59:14.515Z,518.94
2022-11-25T02:00:10.911Z,516.92
2022-11-25T02:01:06.234Z,516.53
2022-11-25T02:02:02.149Z,518.53
2022-11-25T02:02:57.195Z,517.33
2022-11-25T02:03:52.361Z,514.53
2022-11-25T02:04:48.238Z,516.12
2022-11-25T02:05:43.364Z,517.73
2022-11-25T02:06:39.355Z,516.92
2022-11-25T02:07:34.429Z,518.53
2022-11-25T02:08:29.581Z,519.74
2022-11-25T02:09:25.284Z,520.96
2022-11-25T02:10:20.538Z,516.92
2022-11-25T02:11:15.747Z,520.56
2022-11-25T02:12:12.173Z,515.73
2022-11-25T02:13:07.362Z,517.33
2022-11-25T02:14:03.124Z,514.14
2022-11-25T02:14:58.214Z,515.73
2022-11-25T02:15:53.495Z,514.14
2022-11-25T02:16:48.609Z,509.42
2022-11-25T02:17:43.778Z,508.64
2022-11-25T02:18:38.812Z,504.41
2022-11-25T02:19:33.800Z,504.41
2022-11-25T02:20:28.867Z,472.60
2022-11-25T02:21:23.881Z,451.48
2022-11-25T02:22:18.901Z,447.24
2022-11-25T02:23:13.966Z,451.78
2022-11-25T02:24:09.069Z,457.05
2022-11-25T02:25:04.100Z,459.25
2022-11-25T02:25:59.066Z,465.34
2022-11-25T02:26:54.218Z,471.26
2022-11-25T02:27:49.201Z,475.97
2022-11-25T02:28:45.934Z,471.59
2022-11-25T02:29:41.028Z,478.70
2022-11-25T02:30:36.203Z,481.82
2022-11-25T02:31:31.383Z,483.56
2022-11-25T02:32:26.404Z,478.36
2022-11-25T02:33:21.406Z,483.21
2022-11-25T02:34:16.465Z,481.47
2022-11-25T02:35:11.475Z,478.36
2022-11-25T02:36:06.675Z,477.33
2022-11-25T02:37:01.744Z,472.60
2022-11-25T02:37:56.929Z,473.60
2022-11-25T02:38:51.903Z,472.93
2022-11-25T02:39:46.904Z,467.62
2022-11-25T02:40:41.989Z,465.99
2022-11-25T02:41:37.125Z,465.99
2022-11-25T02:42:32.108Z,461.80
2022-11-25T02:43:27.354Z,462.44
2022-11-25T02:44:22.228Z,462.44
2022-11-25T02:45:17.385Z,455.80
2022-11-25T02:46:15.012Z,455.18
2022-11-25T02:47:09.042Z,452.70
2022-11-25T02:48:03.230Z,454.56
2022-11-25T02:49:08.775Z,450.87
2022-11-25T02:49:54.663Z,451.78
2022-11-25T02:50:48.868Z,454.25
2022-11-25T02:51:44.124Z,449.95
2022-11-25T02:52:39.266Z,449.05
2022-11-25T02:53:34.428Z,450.56
2022-11-25T02:54:33.497Z,447.54
2022-11-25T02:55:28.292Z,448.74
2022-11-25T02:56:23.461Z,449.35
2022-11-25T02:57:18.614Z,453.32
2022-11-25T02:58:14.023Z,446.64
2022-11-25T02:59:09.155Z,448.44
2022-11-25T03:00:04.212Z,441.61
2022-11-25T03:00:59.280Z,446.64
2022-11-25T03:01:54.325Z,446.34
2022-11-25T03:02:52.753Z,446.04
2022-11-25T03:03:47.947Z,442.49
2022-11-25T03:04:43.369Z,441.03
2022-11-25T03:05:38.299Z,447.54
2022-11-25T03:06:33.448Z,444.26
2022-11-25T03:07:29.499Z,446.34
2022-11-25T03:08:24.616Z,442.78
2022-11-25T03:09:19.797Z,446.04
2022-11-25T03:10:15.577Z,443.37
2022-11-25T03:11:10.739Z,445.74
2022-11-25T03:12:06.593Z,448.14
2022-11-25T03:13:01.633Z,449.05
2022-11-25T03:13:56.798Z,454.56
2022-11-25T03:14:52.886Z,456.73
2022-11-25T03:15:47.906Z,456.11
2022-11-25T03:16:43.392Z,458.62
2022-11-25T03:17:39.371Z,457.67
2022-11-25T03:18:34.710Z,458.30
2022-11-25T03:19:30.421Z,459.89
2022-11-25T03:20:25.745Z,463.08
2022-11-25T03:21:21.042Z,466.97
2022-11-25T03:22:16.786Z,463.72
2022-11-25T03:23:11.996Z,465.02
2022-11-25T03:24:07.872Z,460.84
2022-11-25T03:25:03.019Z,462.44
2022-11-25T03:25:58.485Z,460.52
2022-11-25T03:26:54.102Z,458.93
2022-11-25T03:27:49.269Z,458.62
2022-11-25T03:28:44.422Z,464.69
2022-11-25T03:29:40.954Z,462.12
2022-11-25T03:30:36.145Z,466.97
2022-11-25T03:31:32.054Z,463.72
2022-11-25T03:32:27.190Z,466.64
2022-11-25T03:33:22.520Z,465.67
2022-11-25T03:34:18.266Z,465.99
2022-11-25T03:35:13.454Z,463.72
2022-11-25T03:36:09.178Z,463.72
2022-11-25T03:37:04.418Z,462.44
2022-11-25T03:37:59.682Z,465.02
2022-11-25T03:38:55.557Z,461.16
2022-11-25T03:39:50.736Z,461.48
2022-11-25T03:40:45.967Z,461.80
2022-11-25T03:41:42.227Z,460.84
2022-11-25T03:42:37.541Z,462.12
2022-11-25T03:43:33.255Z,467.95
2022-11-25T03:44:28.428Z,468.28
2022-11-25T03:45:23.630Z,469.27
2022-11-25T03:46:19.477Z,470.60
2022-11-25T03:47:14.642Z,471.59
2022-11-25T03:48:10.664Z,463.08
2022-11-25T03:49:05.703Z,468.28
2022-11-25T03:50:01.161Z,471.59
2022-11-25T03:50:56.941Z,474.95
2022-11-25T03:51:52.116Z,478.70
2022-11-25T03:52:47.396Z,480.43
2022-11-25T03:53:43.833Z,480.43
2022-11-25T03:54:39.008Z,484.97
2022-11-25T03:55:35.049Z,482.86
2022-11-25T03:56:30.025Z,485.32
2022-11-25T03:57:25.475Z,490.32
2022-11-25T03:58:21.087Z,494.68
2022-11-25T03:59:16.503Z,491.40
2022-11-25T04:00:12.270Z,485.32
2022-11-25T04:01:07.541Z,484.27
2022-11-25T04:02:02.764Z,484.62
2022-11-25T04:02:58.381Z,481.12
2022-11-25T04:03:53.546Z,485.68
2022-11-25T04:04:48.728Z,483.91
2022-11-25T04:05:45.133Z,482.51
2022-11-25T04:06:40.336Z,482.16
2022-11-25T04:07:35.546Z,480.43
2022-11-25T04:08:30.739Z,478.70
2022-11-25T04:09:27.287Z,475.29
2022-11-25T04:10:22.498Z,473.94
2022-11-25T04:11:17.765Z,474.61
2022-11-25T04:12:14.174Z,472.60
2022-11-25T04:13:09.353Z,470.26
2022-11-25T04:14:05.235Z,466.32
2022-11-25T04:15:00.363Z,467.62
2022-11-25T04:15:55.825Z,466.97
2022-11-25T04:16:51.532Z,468.94
2022-11-25T04:17:46.765Z,473.27
2022-11-25T04:18:42.492Z,474.28
2022-11-25T04:19:37.799Z,471.93
2022-11-25T04:20:33.091Z,472.93
2022-11-25T04:21:28.836Z,478.36
2022-11-25T04:22:24.021Z,480.08
2022-11-25T04:23:19.203Z,479.74
2022-11-25T04:24:15.560Z,483.56
2022-11-25T04:25:10.879Z,487.45
2022-11-25T04:26:06.040Z,484.97
2022-11-25T04:27:01.385Z,489.96
2022-11-25T04:27:56.661Z,490.32
2022-11-25T04:28:53.120Z,493.22
2022-11-25T04:29:47.597Z,492.13
2022-11-25T04:30:42.890Z,478.02
2022-11-25T04:31:38.733Z,463.72
2022-11-25T04:32:33.897Z,453.63
2022-11-25T04:33:29.094Z,457.67
2022-11-25T04:34:24.258Z,459.89
2022-11-25T04:35:19.426Z,456.42
2022-11-25T04:36:14.648Z,459.89
2022-11-25T04:37:11.055Z,454.25
2022-11-25T04:38:06.198Z,446.64
2022-11-25T04:39:01.400Z,422.31
2022-11-25T04:40:00.871Z,415.21
2022-11-25T04:40:56.032Z,424.19
2022-11-25T04:41:51.245Z,434.14
2022-11-25T04:42:46.397Z,441.61
2022-11-25T04:43:41.588Z,450.26
2022-11-25T04:44:36.928Z,453.94
2022-11-25T04:45:51.552Z,461.16
2022-11-25T04:46:29.229Z,469.27
2022-11-25T04:47:23.235Z,474.95
2022-11-25T04:48:18.360Z,480.43
2022-11-25T04:49:13.814Z,481.47
2022-11-25T04:50:08.853Z,479.05
2022-11-25T04:51:03.985Z,481.82
2022-11-25T04:51:59.052Z,483.21
2022-11-25T04:52:56.804Z,480.08
2022-11-25T04:53:51.931Z,483.91
2022-11-25T04:54:47.092Z,484.62
2022-11-25T04:55:42.226Z,486.39
2022-11-25T04:56:37.594Z,481.12
2022-11-25T04:57:33.324Z,486.03
2022-11-25T04:58:28.615Z,484.62
2022-11-25T04:59:23.954Z,486.03
2022-11-25T05:00:19.572Z,485.32
2022-11-25T05:01:14.853Z,485.32
2022-11-25T05:02:10.613Z,486.74
2022-11-25T05:03:05.751Z,484.27
2022-11-25T05:04:01.066Z,488.17
2022-11-25T05:04:56.675Z,483.21
2022-11-25T05:05:52.015Z,481.47
2022-11-25T05:06:47.177Z,483.91
2022-11-25T05:07:43.760Z,482.16
2022-11-25T05:08:38.947Z,479.39
2022-11-25T05:09:35.011Z,473.60
2022-11-25T05:10:30.010Z,470.60
2022-11-25T05:11:25.233Z,458.93
2022-11-25T05:12:20.970Z,448.44
2022-11-25T05:13:16.195Z,446.64
2022-11-25T05:14:11.917Z,447.54
2022-11-25T05:15:07.344Z,438.71
2022-11-25T05:16:02.429Z,435.27
2022-11-25T05:16:58.191Z,422.58
2022-11-25T05:17:53.405Z,416.77
2022-11-25T05:18:48.587Z,421.25
2022-11-25T05:19:44.862Z,423.39
2022-11-25T05:20:40.171Z,425.28
2022-11-25T05:21:35.896Z,428.56
2022-11-25T05:22:31.075Z,431.89
2022-11-25T05:23:26.290Z,429.66
2022-11-25T05:24:22.053Z,431.33
2022-11-25T05:25:17.224Z,434.42
2022-11-25T05:26:13.213Z,435.27
2022-11-25T05:27:08.257Z,439.28
2022-11-25T05:28:03.478Z,439.28
2022-11-25T05:28:59.236Z,445.15
2022-11-25T05:29:56.216Z,442.78
2022-11-25T05:30:49.890Z,425.55
2022-11-25T05:31:44.969Z,420.18
2022-11-25T05:32:40.013Z,412.13
2022-11-25T05:33:35.271Z,405.12
2022-11-25T05:34:30.166Z,391.79
2022-11-25T05:35:25.197Z,380.39
2022-11-25T05:36:20.289Z,347.34
2022-11-25T05:37:17.720Z,332.55
2022-11-25T05:38:11.425Z,328.56
2022-11-25T05:39:05.446Z,324.98
2022-11-25T05:40:00.557Z,328.56
2022-11-25T05:40:55.583Z,336.65
2022-11-25T05:41:53.057Z,340.14
2022-11-25T05:42:48.122Z,346.97
2022-11-25T05:43:43.214Z,355.62
2022-11-25T05:44:38.499Z,358.73
2022-11-25T05:45:33.391Z,354.09
2022-11-25T05:46:28.601Z,354.47
2022-11-25T05:47:23.459Z,359.13
2022-11-25T05:48:18.641Z,366.34
2022-11-25T05:49:13.896Z,377.73
2022-11-25T05:50:08.921Z,387.69
2022-11-25T05:51:04.005Z,393.41
2022-11-25T05:51:59.086Z,398.82
2022-11-25T05:52:54.167Z,401.46
2022-11-25T05:53:49.203Z,384.34
2022-11-25T05:54:44.304Z,386.12
2022-11-25T05:55:39.910Z,387.47
2022-11-25T05:56:35.107Z,382.58
2022-11-25T05:57:30.308Z,383.24
2022-11-25T05:58:25.531Z,388.14
2022-11-25T05:59:21.388Z,398.11
2022-11-25T06:00:16.608Z,390.65
2022-11-25T06:01:11.903Z,379.96
2022-11-25T06:02:08.281Z,377.73
2022-11-25T06:03:03.669Z,386.35
2022-11-25T06:03:59.349Z,394.58
2022-11-25T06:04:54.581Z,399.78
2022-11-25T06:05:49.922Z,403.41
2022-11-25T06:06:45.597Z,402.43
2022-11-25T06:07:40.890Z,404.63
2022-11-25T06:08:36.573Z,405.12
2022-11-25T06:09:31.757Z,407.10
2022-11-25T06:10:27.075Z,392.26
2022-11-25T06:11:22.744Z,384.12
2022-11-25T06:12:17.944Z,382.80
2022-11-25T06:13:13.196Z,386.35
2022-11-25T06:14:09.609Z,370.06
2022-11-25T06:15:04.801Z,361.90
2022-11-25T06:16:06.303Z,362.70
2022-11-25T06:16:56.377Z,369.23
2022-11-25T06:17:50.481Z,373.86
2022-11-25T06:18:45.554Z,372.58
2022-11-25T06:19:40.618Z,376.86
2022-11-25T06:20:35.665Z,376.86
2022-11-25T06:21:30.746Z,377.30
2022-11-25T06:22:25.813Z,355.62
2022-11-25T06:23:20.862Z,312.89
2022-11-25T06:24:15.995Z,272.37
2022-11-25T06:25:10.973Z,244.20
2022-11-25T06:26:06.067Z,232.27
2022-11-25T06:27:01.077Z,243.47
2022-11-25T06:28:14.980Z,255.41
2022-11-25T06:28:55.861Z,272.37
2022-11-25T06:29:50.198Z,290.71
2022-11-25T06:30:45.471Z,299.74
2022-11-25T06:31:40.612Z,296.76
2022-11-25T06:32:37.530Z,302.51
2022-11-25T06:33:30.723Z,306.46
2022-11-25T06:34:25.751Z,310.82
2022-11-25T06:35:20.863Z,310.82
2022-11-25T06:36:15.820Z,316.52
2022-11-25T06:37:10.845Z,324.02
2022-11-25T06:38:05.939Z,338.04
2022-11-25T06:39:00.987Z,345.88
2022-11-25T06:39:55.938Z,351.43
2022-11-25T06:40:51.807Z,357.17
2022-11-25T06:41:46.152Z,348.82
2022-11-25T06:42:41.313Z,332.22
2022-11-25T06:43:36.312Z,314.09
2022-11-25T06:44:31.400Z,312.30
2022-11-25T06:45:28.065Z,317.74
2022-11-25T06:46:25.428Z,312.30
2022-11-25T06:47:18.820Z,309.06
2022-11-25T06:48:14.089Z,307.90
2022-11-25T06:49:09.723Z,304.19
2022-11-25T06:50:04.944Z,313.19
2022-11-25T06:51:00.212Z,323.38
2022-11-25T06:51:55.539Z,321.48
2022-11-25T06:52:50.761Z,325.95
2022-11-25T06:53:46.062Z,328.89
2022-11-25T06:54:41.396Z,325.95
2022-11-25T06:55:36.707Z,324.66
2022-11-25T06:56:32.037Z,310.52
2022-11-25T06:57:27.421Z,303.07
2022-11-25T06:58:35.317Z,316.52
2022-11-25T06:59:19.618Z,311.70
2022-11-25T07:00:14.165Z,231.78
2022-11-25T07:01:09.473Z,207.85
2022-11-25T07:02:04.789Z,177.53
2022-11-25T07:03:00.795Z,143.61
2022-11-25T07:03:56.224Z,137.69
2022-11-25T07:04:51.622Z,143.24
2022-11-25T07:05:46.737Z,149.66
2022-11-25T07:06:41.767Z,162.96
2022-11-25T07:07:36.797Z,176.40
2022-11-25T07:08:34.128Z,185.83
2022-11-25T07:09:30.845Z,191.47
2022-11-25T07:10:25.811Z,197.46
2022-11-25T07:11:20.982Z,207.19
2022-11-25T07:12:15.970Z,218.36
2022-11-25T07:13:11.038Z,227.44
2022-11-25T07:14:06.378Z,230.96
2022-11-25T07:15:01.205Z,238.52
2022-11-25T07:15:56.367Z,238.17
2022-11-25T07:16:51.496Z,240.44
2022-11-25T07:17:46.447Z,240.62
2022-11-25T07:18:41.427Z,242.93
2022-11-25T07:19:36.841Z,235.77
2022-11-25T07:20:32.601Z,195.23
2022-11-25T07:21:28.001Z,204.99
2022-11-25T07:22:23.470Z,227.12
2022-11-25T07:23:19.158Z,240.97
2022-11-25T07:24:14.518Z,242.39
2022-11-25T07:25:10.307Z,243.65
2022-11-25T07:26:05.643Z,250.73
2022-11-25T07:27:01.383Z,251.30
2022-11-25T07:27:56.775Z,243.47
2022-11-25T07:28:52.204Z,227.12
2022-11-25T07:31:40.232Z,227.60
2022-11-25T07:32:35.033Z,230.96
2022-11-25T07:33:30.413Z,238.86
2022-11-25T07:34:25.802Z,249.39
2022-11-25T07:35:21.588Z,257.01
2022-11-25T07:36:16.992Z,262.99
2022-11-25T07:37:12.778Z,271.02
2022-11-25T07:38:08.179Z,273.97
2022-11-25T07:39:03.602Z,276.97
2022-11-25T07:39:59.311Z,282.70
2022-11-25T07:40:54.707Z,283.92
2022-11-25T07:41:50.467Z,288.42
2022-11-25T07:42:46.411Z,295.96
2022-11-25T07:43:41.807Z,299.74
2022-11-25T07:44:37.464Z,305.32
2022-11-25T07:45:32.935Z,311.41
2022-11-25T07:46:28.467Z,315.91
2022-11-25T07:47:24.176Z,319.60
2022-11-25T07:48:19.567Z,326.60
2022-11-25T07:49:15.523Z,333.57
2022-11-25T07:50:10.839Z,336.65
2022-11-25T07:51:06.341Z,332.22
2022-11-25T07:52:02.218Z,338.39
2022-11-25T07:52:57.566Z,342.27
2022-11-25T07:53:52.999Z,346.61
2022-11-25T07:54:49.291Z,352.95
2022-11-25T07:55:44.690Z,362.30
2022-11-25T07:56:40.793Z,366.75
2022-11-25T07:57:36.169Z,376.00
2022-11-25T07:58:31.707Z,377.73
2022-11-25T07:59:27.440Z,379.75
2022-11-25T08:00:22.898Z,381.70
2022-11-25T08:01:18.811Z,377.73
2022-11-25T08:02:14.143Z,375.14
2022-11-25T08:03:09.536Z,374.71
2022-11-25T08:04:05.269Z,372.58
2022-11-25T08:05:00.739Z,374.28
2022-11-25T08:05:56.186Z,368.40
2022-11-25T08:06:52.472Z,366.75
2022-11-25T08:07:47.966Z,361.50
2022-11-25T08:08:43.830Z,359.52
2022-11-25T08:09:39.620Z,356.40
2022-11-25T08:10:34.648Z,351.06
2022-11-25T08:11:30.287Z,339.08
2022-11-25T08:12:25.322Z,336.30
2022-11-25T08:13:20.395Z,332.55
2022-11-25T08:14:15.334Z,328.56
2022-11-25T08:15:10.454Z,327.58
2022-11-25T08:16:05.528Z,323.06
2022-11-25T08:17:00.520Z,321.79
2022-11-25T08:17:55.542Z,319.91
2022-11-25T08:18:50.788Z,314.09
2022-11-25T08:19:45.808Z,309.35
2022-11-25T08:20:40.895Z,307.61
2022-11-25T08:21:35.959Z,306.46
2022-11-25T08:22:33.192Z,305.89
2022-11-25T08:23:28.104Z,303.07
2022-11-25T08:24:23.223Z,300.84
2022-11-25T08:25:18.253Z,302.23
2022-11-25T08:26:13.309Z,301.95
2022-11-25T08:27:08.422Z,299.20
2022-11-25T08:28:03.363Z,290.71
2022-11-25T08:28:58.432Z,278.38
2022-11-25T08:29:53.660Z,269.91
2022-11-25T08:30:49.396Z,263.20
2022-11-25T08:31:44.927Z,253.24
2022-11-25T08:32:40.259Z,247.33
2022-11-25T08:33:35.723Z,245.48
2022-11-25T08:34:32.400Z,244.02
2022-11-25T08:35:27.898Z,239.74
2022-11-25T08:36:23.321Z,243.29
2022-11-25T08:37:18.769Z,245.66
2022-11-25T08:38:13.867Z,244.93
2022-11-25T08:39:29.098Z,246.40
2022-11-25T08:40:05.095Z,244.38
2022-11-25T08:40:59.059Z,247.33
2022-11-25T08:41:54.659Z,249.21
2022-11-25T08:42:50.238Z,248.83
2022-11-25T08:43:45.601Z,250.15
2022-11-25T08:44:41.358Z,255.21
2022-11-25T08:45:36.828Z,258.43
2022-11-25T08:46:32.381Z,262.15
2022-11-25T08:47:28.664Z,264.26
2022-11-25T08:48:24.168Z,266.84
2022-11-25T08:49:19.922Z,265.97
2022-11-25T08:50:15.356Z,262.78
2022-11-25T08:51:10.901Z,264.05
2022-11-25T08:52:06.751Z,269.24
2022-11-25T08:53:02.300Z,279.57
2022-11-25T08:53:57.940Z,290.71
2022-11-25T08:54:53.373Z,293.58
2022-11-25T08:55:48.813Z,299.47
2022-11-25T08:56:44.751Z,308.77
2022-11-25T08:57:40.190Z,312.89
2022-11-25T08:58:35.622Z,315.91
2022-11-25T08:59:31.945Z,309.94
2022-11-25T09:00:27.362Z,309.64
2022-11-25T09:01:23.343Z,305.32
2022-11-25T09:02:18.876Z,304.19
2022-11-25T09:03:14.305Z,302.51
2022-11-25T09:04:09.951Z,299.74
2022-11-25T09:05:05.469Z,294.37
2022-11-25T09:06:01.267Z,289.69
2022-11-25T09:06:56.896Z,286.15
2022-11-25T09:07:52.096Z,278.86
2022-11-25T09:08:47.910Z,265.76
2022-11-25T09:09:43.388Z,254.82
2022-11-25T09:10:38.885Z,244.74
2022-11-25T09:11:35.291Z,234.76
2022-11-25T09:12:30.700Z,237.31
2022-11-25T09:13:26.452Z,235.44
2022-11-25T09:14:21.994Z,237.65
2022-11-25T09:15:17.430Z,231.78
2022-11-25T09:16:13.221Z,229.03
2022-11-25T09:17:08.673Z,229.99
2022-11-25T09:18:04.443Z,232.76
2022-11-25T09:18:59.720Z,238.86
2022-11-25T09:19:55.092Z,242.93
2022-11-25T09:20:51.031Z,248.07
2022-11-25T09:21:46.467Z,249.77
2022-11-25T09:22:42.073Z,255.01
2022-11-25T09:23:38.229Z,257.42
2022-11-25T09:24:33.665Z,258.63
2022-11-25T09:25:29.512Z,259.86
2022-11-25T09:26:24.981Z,260.90
2022-11-25T09:27:20.560Z,261.10
2022-11-25T09:28:16.159Z,266.19
2022-11-25T09:29:11.608Z,269.91
2022-11-25T09:30:07.447Z,274.65
2022-11-25T09:31:02.844Z,276.51
2022-11-25T09:31:58.355Z,277.21
2022-11-25T09:32:54.064Z,278.15
2022-11-25T09:33:49.527Z,279.33
2022-11-25T09:34:44.957Z,279.57
2022-11-25T09:35:41.257Z,277.21
2022-11-25T09:36:36.741Z,276.97
2022-11-25T09:37:32.613Z,269.24
2022-11-25T09:38:28.355Z,265.33
2022-11-25T09:39:23.571Z,263.41
2022-11-25T09:40:19.291Z,264.68
2022-11-25T09:41:14.726Z,265.33
2022-11-25T09:42:10.438Z,268.80
2022-11-25T09:43:05.520Z,262.36
2022-11-25T09:44:00.541Z,265.11
2022-11-25T09:44:55.614Z,265.11
2022-11-25T09:45:50.646Z,264.47
2022-11-25T09:46:45.858Z,267.05
2022-11-25T09:47:46.511Z,266.62
2022-11-25T09:48:36.752Z,267.05
2022-11-25T09:49:30.807Z,268.80
2022-11-25T09:50:25.938Z,269.91
2022-11-25T09:51:20.959Z,264.05
2022-11-25T09:52:15.963Z,263.20
2022-11-25T09:53:15.169Z,261.94
2022-11-25T09:54:10.081Z,258.84
2022-11-25T09:55:05.119Z,257.42
2022-11-25T09:56:01.608Z,255.41
2022-11-25T09:56:55.211Z,253.83
2022-11-25T09:57:52.863Z,254.23
2022-11-25T09:58:46.392Z,255.21
2022-11-25T09:59:40.390Z,254.42
2022-11-25T10:00:35.424Z,250.35
2022-11-25T10:01:30.475Z,250.54
2022-11-25T10:02:25.745Z,244.74
2022-11-25T10:03:20.802Z,243.29
2022-11-25T10:04:19.894Z,244.93
2022-11-25T10:05:15.479Z,242.93
2022-11-25T10:06:10.817Z,241.50
2022-11-25T10:07:06.251Z,243.11
2022-11-25T10:08:02.103Z,240.62
2022-11-25T10:08:57.515Z,238.17
2022-11-25T10:09:53.168Z,234.26
2022-11-25T10:10:48.811Z,231.94
2022-11-25T10:11:44.218Z,233.26
2022-11-25T10:12:39.845Z,234.60
2022-11-25T10:13:35.432Z,232.76
2022-11-25T10:14:30.849Z,235.44
2022-11-25T10:15:26.273Z,233.59
2022-11-25T10:16:22.644Z,240.62
2022-11-25T10:17:17.988Z,242.04
2022-11-25T10:18:13.686Z,241.50
2022-11-25T10:19:09.237Z,239.39
2022-11-25T10:20:04.545Z,238.34
2022-11-25T10:21:00.686Z,236.62
2022-11-25T10:21:56.123Z,239.56
2022-11-25T10:22:51.912Z,240.26
2022-11-25T10:23:47.386Z,241.50
2022-11-25T10:24:43.227Z,241.50
2022-11-25T10:25:38.856Z,239.56
2022-11-25T10:26:34.274Z,239.39
2022-11-25T10:27:29.819Z,231.12
2022-11-25T10:28:25.990Z,226.18
2022-11-25T10:29:21.428Z,226.03
2022-11-25T10:30:17.272Z,227.28
2022-11-25T10:31:12.918Z,227.76
2022-11-25T10:32:08.208Z,229.19
2022-11-25T10:33:03.970Z,229.35
2022-11-25T10:33:59.352Z,235.27
2022-11-25T10:34:55.312Z,237.48
2022-11-25T10:35:50.568Z,234.60
2022-11-25T10:36:46.112Z,235.94
2022-11-25T10:37:42.136Z,237.48
2022-11-25T10:38:37.310Z,239.04
2022-11-25T10:39:32.754Z,240.09
2022-11-25T10:40:29.053Z,238.69
2022-11-25T10:41:24.480Z,235.77
2022-11-25T10:42:20.453Z,233.43
2022-11-25T10:43:15.745Z,225.10
2022-11-25T10:44:11.188Z,226.03
2022-11-25T10:45:06.841Z,228.55
2022-11-25T10:46:02.313Z,232.27
2022-11-25T10:47:13.369Z,234.09
2022-11-25T10:47:54.499Z,238.34
2022-11-25T10:48:49.387Z,238.17
2022-11-25T10:49:44.775Z,240.26
2022-11-25T10:50:40.506Z,245.84
2022-11-25T10:51:35.975Z,244.20
2022-11-25T10:52:31.423Z,243.83
2022-11-25T10:53:27.198Z,242.57
2022-11-25T10:54:27.690Z,237.14
2022-11-25T10:55:19.110Z,236.97
2022-11-25T10:56:14.549Z,236.97
2022-11-25T10:57:09.983Z,239.04
2022-11-25T10:58:05.475Z,239.91
2022-11-25T10:59:01.169Z,241.50
2022-11-25T10:59:56.527Z,242.21
2022-11-25T11:00:52.305Z,237.82
2022-11-25T11:01:47.747Z,233.10
2022-11-25T11:02:43.283Z,219.23
2022-11-25T11:03:38.961Z,222.96
2022-11-25T11:04:34.618Z,221.45
2022-11-25T11:05:29.828Z,225.87
2022-11-25T11:06:26.470Z,228.71
2022-11-25T11:07:21.853Z,231.94
2022-11-25T11:08:17.667Z,238.17
2022-11-25T11:09:13.114Z,242.39
2022-11-25T11:10:08.544Z,233.59
2022-11-25T11:11:04.357Z,243.83
2022-11-25T11:11:59.813Z,248.64
2022-11-25T11:12:55.225Z,251.69
2022-11-25T11:13:50.792Z,259.45
2022-11-25T11:14:46.158Z,265.11
2022-11-25T11:15:41.263Z,267.05
2022-11-25T11:16:36.285Z,266.62
2022-11-25T11:17:36.028Z,267.93
2022-11-25T11:18:27.368Z,269.02
2022-11-25T11:19:21.735Z,270.58
2022-11-25T11:20:20.310Z,270.58
2022-11-25T11:21:15.395Z,269.02
2022-11-25T11:22:10.413Z,270.35
2022-11-25T11:23:08.823Z,271.02
2022-11-25T11:24:01.309Z,262.78
2022-11-25T11:24:55.577Z,262.36
2022-11-25T11:25:50.585Z,269.47
2022-11-25T11:26:45.678Z,268.14
2022-11-25T11:27:40.699Z,268.80
2022-11-25T11:28:35.843Z,268.36
2022-11-25T11:29:31.796Z,268.14
2022-11-25T11:30:27.073Z,265.33
2022-11-25T11:31:22.795Z,267.05
2022-11-25T11:32:18.216Z,267.05
2022-11-25T11:33:13.458Z,260.90